sensor_id;sensor_type;location;lat;lon;timestamp;pressure;altitude;pressure_sealevel;temperature;humidity
76868;BME280;66168;45.478;11.060;2023-12-07T00:02:05;100802.81;;;4.72;70.48
76868;BME280;66168;45.478;11.060;2023-12-07T00:04:32;100804.39;;;4.72;70.38
76868;BME280;66168;45.478;11.060;2023-12-07T00:06:59;100805.09;;;4.71;70.38
76868;BME280;66168;45.478;11.060;2023-12-07T00:09:26;100806.27;;;4.72;70.30
76868;BME280;66168;45.478;11.060;2023-12-07T00:11:53;100804.42;;;4.73;70.23
76868;BME280;66168;45.478;11.060;2023-12-07T00:14:20;100803.47;;;4.76;70.17
76868;BME280;66168;45.478;11.060;2023-12-07T00:16:47;100803.30;;;4.80;70.02
76868;BME280;66168;45.478;11.060;2023-12-07T00:19:14;100804.52;;;4.84;69.90
76868;BME280;66168;45.478;11.060;2023-12-07T00:21:41;100806.82;;;4.88;69.57
76868;BME280;66168;45.478;11.060;2023-12-07T00:24:08;100807.66;;;4.90;69.46
76868;BME280;66168;45.478;11.060;2023-12-07T00:26:35;100809.91;;;4.91;69.55
76868;BME280;66168;45.478;11.060;2023-12-07T00:29:02;100813.71;;;4.91;69.35
76868;BME280;66168;45.478;11.060;2023-12-07T00:31:29;100814.27;;;4.91;69.41
76868;BME280;66168;45.478;11.060;2023-12-07T00:33:56;100816.18;;;4.91;69.37
76868;BME280;66168;45.478;11.060;2023-12-07T00:36:23;100817.88;;;4.90;69.24
76868;BME280;66168;45.478;11.060;2023-12-07T00:38:49;100817.03;;;4.89;69.20
76868;BME280;66168;45.478;11.060;2023-12-07T00:41:16;100818.03;;;4.88;69.10
76868;BME280;66168;45.478;11.060;2023-12-07T00:43:44;100817.89;;;4.86;69.34
76868;BME280;66168;45.478;11.060;2023-12-07T00:46:10;100816.27;;;4.82;69.17
76868;BME280;66168;45.478;11.060;2023-12-07T00:48:37;100821.63;;;4.83;69.22
76868;BME280;66168;45.478;11.060;2023-12-07T00:51:04;100820.95;;;4.83;69.17
76868;BME280;66168;45.478;11.060;2023-12-07T00:53:33;100822.50;;;4.81;69.21
76868;BME280;66168;45.478;11.060;2023-12-07T00:56:00;100824.86;;;4.80;69.14
76868;BME280;66168;45.478;11.060;2023-12-07T00:58:27;100828.54;;;4.79;69.13
76868;BME280;66168;45.478;11.060;2023-12-07T01:00:54;100832.70;;;4.79;69.07
76868;BME280;66168;45.478;11.060;2023-12-07T01:03:21;100831.63;;;4.82;69.07
76868;BME280;66168;45.478;11.060;2023-12-07T01:05:48;100834.63;;;4.83;69.12
76868;BME280;66168;45.478;11.060;2023-12-07T01:08:15;100837.27;;;4.85;68.94
76868;BME280;66168;45.478;11.060;2023-12-07T01:10:42;100841.77;;;4.86;68.93
76868;BME280;66168;45.478;11.060;2023-12-07T01:13:09;100844.37;;;4.86;69.00
76868;BME280;66168;45.478;11.060;2023-12-07T01:15:36;100846.99;;;4.84;68.92
76868;BME280;66168;45.478;11.060;2023-12-07T01:18:03;100851.63;;;4.82;69.01
76868;BME280;66168;45.478;11.060;2023-12-07T01:20:29;100854.86;;;4.82;69.03
76868;BME280;66168;45.478;11.060;2023-12-07T01:22:56;100856.80;;;4.81;68.98
76868;BME280;66168;45.478;11.060;2023-12-07T01:25:23;100859.83;;;4.80;68.92
76868;BME280;66168;45.478;11.060;2023-12-07T01:27:51;100863.69;;;4.80;68.89
76868;BME280;66168;45.478;11.060;2023-12-07T01:30:18;100864.86;;;4.79;68.87
76868;BME280;66168;45.478;11.060;2023-12-07T01:32:45;100867.78;;;4.78;69.09
76868;BME280;66168;45.478;11.060;2023-12-07T01:35:12;100866.52;;;4.78;69.07
76868;BME280;66168;45.478;11.060;2023-12-07T01:37:39;100870.90;;;4.76;69.08
76868;BME280;66168;45.478;11.060;2023-12-07T01:40:06;100874.68;;;4.75;69.04
76868;BME280;66168;45.478;11.060;2023-12-07T01:42:37;100876.70;;;4.76;68.97
76868;BME280;66168;45.478;11.060;2023-12-07T01:45:06;100878.59;;;4.77;68.81
76868;BME280;66168;45.478;11.060;2023-12-07T01:47:35;100880.02;;;4.76;68.84
76868;BME280;66168;45.478;11.060;2023-12-07T01:50:09;100881.75;;;4.75;68.87
76868;BME280;66168;45.478;11.060;2023-12-07T01:52:40;100881.98;;;4.72;68.81
76868;BME280;66168;45.478;11.060;2023-12-07T01:55:10;100880.78;;;4.70;68.85
76868;BME280;66168;45.478;11.060;2023-12-07T01:57:38;100877.02;;;4.68;68.89
76868;BME280;66168;45.478;11.060;2023-12-07T02:00:05;100874.84;;;4.69;68.75
76868;BME280;66168;45.478;11.060;2023-12-07T02:02:32;100870.30;;;4.69;68.90
76868;BME280;66168;45.478;11.060;2023-12-07T02:05:00;100870.27;;;4.69;68.59
76868;BME280;66168;45.478;11.060;2023-12-07T02:07:27;100864.55;;;4.68;68.38
76868;BME280;66168;45.478;11.060;2023-12-07T02:09:54;100865.93;;;4.71;68.24
76868;BME280;66168;45.478;11.060;2023-12-07T02:12:21;100863.70;;;4.72;68.45
76868;BME280;66168;45.478;11.060;2023-12-07T02:14:49;100865.30;;;4.72;68.19
76868;BME280;66168;45.478;11.060;2023-12-07T02:17:35;100864.54;;;4.70;68.25
76868;BME280;66168;45.478;11.060;2023-12-07T02:20:15;100864.86;;;4.69;68.33
76868;BME280;66168;45.478;11.060;2023-12-07T02:22:49;100863.08;;;4.65;68.20
76868;BME280;66168;45.478;11.060;2023-12-07T02:25:23;100861.09;;;4.64;68.10
76868;BME280;66168;45.478;11.060;2023-12-07T02:27:53;100855.90;;;4.61;68.10
76868;BME280;66168;45.478;11.060;2023-12-07T02:30:19;100853.13;;;4.65;68.04
76868;BME280;66168;45.478;11.060;2023-12-07T02:32:46;100847.57;;;4.68;67.98
76868;BME280;66168;45.478;11.060;2023-12-07T02:35:14;100842.55;;;4.71;67.72
76868;BME280;66168;45.478;11.060;2023-12-07T02:37:44;100843.91;;;4.73;67.64
76868;BME280;66168;45.478;11.060;2023-12-07T02:40:12;100839.77;;;4.75;67.73
76868;BME280;66168;45.478;11.060;2023-12-07T02:42:42;100838.55;;;4.75;67.84
76868;BME280;66168;45.478;11.060;2023-12-07T02:45:10;100840.49;;;4.72;67.87
76868;BME280;66168;45.478;11.060;2023-12-07T02:47:39;100839.52;;;4.69;67.94
76868;BME280;66168;45.478;11.060;2023-12-07T02:50:07;100845.11;;;4.66;67.94
76868;BME280;66168;45.478;11.060;2023-12-07T02:52:34;100846.94;;;4.61;67.93
76868;BME280;66168;45.478;11.060;2023-12-07T02:55:02;100847.71;;;4.58;68.08
76868;BME280;66168;45.478;11.060;2023-12-07T02:57:30;100849.87;;;4.58;67.95
76868;BME280;66168;45.478;11.060;2023-12-07T02:59:57;100846.79;;;4.55;68.02
76868;BME280;66168;45.478;11.060;2023-12-07T03:02:23;100841.98;;;4.53;67.97
76868;BME280;66168;45.478;11.060;2023-12-07T03:04:51;100841.83;;;4.55;67.92
76868;BME280;66168;45.478;11.060;2023-12-07T03:07:19;100848.61;;;4.58;67.83
76868;BME280;66168;45.478;11.060;2023-12-07T03:09:46;100846.81;;;4.57;67.84
76868;BME280;66168;45.478;11.060;2023-12-07T03:12:12;100845.61;;;4.54;67.84
76868;BME280;66168;45.478;11.060;2023-12-07T03:14:39;100850.14;;;4.53;68.10
76868;BME280;66168;45.478;11.060;2023-12-07T03:17:06;100852.89;;;4.51;68.08
76868;BME280;66168;45.478;11.060;2023-12-07T03:19:33;100855.21;;;4.51;68.11
76868;BME280;66168;45.478;11.060;2023-12-07T03:22:04;100856.48;;;4.50;67.85
76868;BME280;66168;45.478;11.060;2023-12-07T03:24:37;100858.90;;;4.49;67.88
76868;BME280;66168;45.478;11.060;2023-12-07T03:27:04;100861.08;;;4.46;67.77
76868;BME280;66168;45.478;11.060;2023-12-07T03:29:32;100867.57;;;4.44;68.16
76868;BME280;66168;45.478;11.060;2023-12-07T03:31:59;100868.38;;;4.43;67.99
76868;BME280;66168;45.478;11.060;2023-12-07T03:34:26;100867.30;;;4.43;68.11
76868;BME280;66168;45.478;11.060;2023-12-07T03:36:52;100871.58;;;4.44;68.07
76868;BME280;66168;45.478;11.060;2023-12-07T03:39:20;100870.02;;;4.42;68.03
76868;BME280;66168;45.478;11.060;2023-12-07T03:41:49;100866.41;;;4.39;68.02
76868;BME280;66168;45.478;11.060;2023-12-07T03:44:16;100867.16;;;4.36;68.32
76868;BME280;66168;45.478;11.060;2023-12-07T03:46:43;100868.51;;;4.33;68.24
76868;BME280;66168;45.478;11.060;2023-12-07T03:49:10;100865.09;;;4.28;68.12
76868;BME280;66168;45.478;11.060;2023-12-07T03:51:37;100869.89;;;4.27;68.36
76868;BME280;66168;45.478;11.060;2023-12-07T03:54:04;100873.14;;;4.24;68.35
76868;BME280;66168;45.478;11.060;2023-12-07T03:56:32;100879.71;;;4.21;68.36
76868;BME280;66168;45.478;11.060;2023-12-07T03:58:59;100880.23;;;4.19;68.28
76868;BME280;66168;45.478;11.060;2023-12-07T04:01:28;100881.58;;;4.20;68.61
76868;BME280;66168;45.478;11.060;2023-12-07T04:03:56;100887.04;;;4.17;69.21
76868;BME280;66168;45.478;11.060;2023-12-07T04:06:24;100889.40;;;4.14;69.28
76868;BME280;66168;45.478;11.060;2023-12-07T04:08:52;100894.52;;;4.10;69.32
76868;BME280;66168;45.478;11.060;2023-12-07T04:11:19;100899.87;;;4.05;69.52
76868;BME280;66168;45.478;11.060;2023-12-07T04:13:46;100903.46;;;4.00;69.55
76868;BME280;66168;45.478;11.060;2023-12-07T04:16:13;100906.30;;;3.95;69.58
76868;BME280;66168;45.478;11.060;2023-12-07T04:18:40;100910.36;;;3.90;69.80
76868;BME280;66168;45.478;11.060;2023-12-07T04:21:07;100913.70;;;3.84;69.62
76868;BME280;66168;45.478;11.060;2023-12-07T04:23:34;100917.02;;;3.76;69.70
76868;BME280;66168;45.478;11.060;2023-12-07T04:26:01;100917.34;;;3.70;69.70
76868;BME280;66168;45.478;11.060;2023-12-07T04:28:28;100922.15;;;3.67;69.87
76868;BME280;66168;45.478;11.060;2023-12-07T04:30:55;100924.52;;;3.63;69.74
76868;BME280;66168;45.478;11.060;2023-12-07T04:33:22;100924.29;;;3.57;69.54
76868;BME280;66168;45.478;11.060;2023-12-07T04:35:48;100927.58;;;3.56;69.90
76868;BME280;66168;45.478;11.060;2023-12-07T04:38:15;100925.39;;;3.53;69.97
76868;BME280;66168;45.478;11.060;2023-12-07T04:40:42;100925.90;;;3.49;69.96
76868;BME280;66168;45.478;11.060;2023-12-07T04:43:09;100923.95;;;3.45;70.15
76868;BME280;66168;45.478;11.060;2023-12-07T04:45:36;100925.05;;;3.42;70.24
76868;BME280;66168;45.478;11.060;2023-12-07T04:48:03;100927.73;;;3.41;70.46
76868;BME280;66168;45.478;11.060;2023-12-07T04:50:31;100930.88;;;3.42;70.64
76868;BME280;66168;45.478;11.060;2023-12-07T04:52:58;100934.58;;;3.39;70.76
76868;BME280;66168;45.478;11.060;2023-12-07T04:55:26;100940.23;;;3.38;70.61
76868;BME280;66168;45.478;11.060;2023-12-07T04:57:53;100940.16;;;3.33;70.41
76868;BME280;66168;45.478;11.060;2023-12-07T05:00:20;100949.64;;;3.28;70.57
76868;BME280;66168;45.478;11.060;2023-12-07T05:02:48;100952.42;;;3.24;70.61
76868;BME280;66168;45.478;11.060;2023-12-07T05:05:15;100956.16;;;3.24;70.55
76868;BME280;66168;45.478;11.060;2023-12-07T05:07:43;100957.11;;;3.27;70.51
76868;BME280;66168;45.478;11.060;2023-12-07T05:10:10;100961.98;;;3.30;70.38
76868;BME280;66168;45.478;11.060;2023-12-07T05:12:37;100964.08;;;3.32;70.28
76868;BME280;66168;45.478;11.060;2023-12-07T05:15:04;100962.98;;;3.35;70.22
76868;BME280;66168;45.478;11.060;2023-12-07T05:17:33;100963.61;;;3.40;70.15
76868;BME280;66168;45.478;11.060;2023-12-07T05:20:00;100962.86;;;3.45;69.96
76868;BME280;66168;45.478;11.060;2023-12-07T05:22:26;100961.46;;;3.51;69.66
76868;BME280;66168;45.478;11.060;2023-12-07T05:24:55;100965.27;;;3.56;69.32
76868;BME280;66168;45.478;11.060;2023-12-07T05:27:22;100968.08;;;3.56;69.11
76868;BME280;66168;45.478;11.060;2023-12-07T05:29:49;100975.42;;;3.60;68.86
76868;BME280;66168;45.478;11.060;2023-12-07T05:32:16;100979.45;;;3.56;68.77
76868;BME280;66168;45.478;11.060;2023-12-07T05:34:43;100976.29;;;3.48;69.25
76868;BME280;66168;45.478;11.060;2023-12-07T05:37:10;100986.00;;;3.40;69.20
76868;BME280;66168;45.478;11.060;2023-12-07T05:39:37;100992.64;;;3.25;69.17
76868;BME280;66168;45.478;11.060;2023-12-07T05:42:05;101000.90;;;3.13;69.87
76868;BME280;66168;45.478;11.060;2023-12-07T05:44:33;101003.05;;;3.08;70.14
76868;BME280;66168;45.478;11.060;2023-12-07T05:47:00;101003.02;;;3.06;70.33
76868;BME280;66168;45.478;11.060;2023-12-07T05:49:27;101007.47;;;3.06;70.60
76868;BME280;66168;45.478;11.060;2023-12-07T05:51:54;101007.50;;;3.08;70.41
76868;BME280;66168;45.478;11.060;2023-12-07T05:54:21;101011.04;;;3.09;70.34
76868;BME280;66168;45.478;11.060;2023-12-07T05:56:49;101013.37;;;3.09;70.36
76868;BME280;66168;45.478;11.060;2023-12-07T05:59:16;101017.78;;;3.08;70.49
76868;BME280;66168;45.478;11.060;2023-12-07T06:01:44;101019.61;;;3.07;70.38
76868;BME280;66168;45.478;11.060;2023-12-07T06:04:11;101017.70;;;3.07;70.36
76868;BME280;66168;45.478;11.060;2023-12-07T06:06:39;101016.86;;;3.09;70.28
76868;BME280;66168;45.478;11.060;2023-12-07T06:09:06;101019.10;;;3.09;70.13
76868;BME280;66168;45.478;11.060;2023-12-07T06:11:35;101020.96;;;3.08;70.35
76868;BME280;66168;45.478;11.060;2023-12-07T06:14:02;101023.52;;;3.07;70.23
76868;BME280;66168;45.478;11.060;2023-12-07T06:16:30;101022.85;;;3.04;69.92
76868;BME280;66168;45.478;11.060;2023-12-07T06:18:56;101025.90;;;3.03;69.89
76868;BME280;66168;45.478;11.060;2023-12-07T06:21:24;101029.46;;;3.04;69.96
76868;BME280;66168;45.478;11.060;2023-12-07T06:23:52;101032.07;;;3.07;70.10
76868;BME280;66168;45.478;11.060;2023-12-07T06:26:19;101036.71;;;3.10;70.05
76868;BME280;66168;45.478;11.060;2023-12-07T06:28:46;101037.75;;;3.15;70.02
76868;BME280;66168;45.478;11.060;2023-12-07T06:31:13;101041.02;;;3.18;69.49
76868;BME280;66168;45.478;11.060;2023-12-07T06:33:47;101039.95;;;3.18;69.35
76868;BME280;66168;45.478;11.060;2023-12-07T06:36:18;101044.23;;;3.19;69.33
76868;BME280;66168;45.478;11.060;2023-12-07T06:38:47;101047.16;;;3.21;69.28
76868;BME280;66168;45.478;11.060;2023-12-07T06:41:14;101042.05;;;3.21;69.25
76868;BME280;66168;45.478;11.060;2023-12-07T06:43:42;101045.94;;;3.20;69.34
76868;BME280;66168;45.478;11.060;2023-12-07T06:46:12;101052.14;;;3.19;69.32
76868;BME280;66168;45.478;11.060;2023-12-07T06:48:40;101052.75;;;3.21;69.41
76868;BME280;66168;45.478;11.060;2023-12-07T06:51:08;101053.04;;;3.24;69.43
76868;BME280;66168;45.478;11.060;2023-12-07T06:53:35;101057.52;;;3.27;69.03
76868;BME280;66168;45.478;11.060;2023-12-07T06:56:02;101059.48;;;3.26;69.18
76868;BME280;66168;45.478;11.060;2023-12-07T06:58:29;101062.02;;;3.27;69.05
76868;BME280;66168;45.478;11.060;2023-12-07T07:00:56;101061.42;;;3.29;68.94
76868;BME280;66168;45.478;11.060;2023-12-07T07:03:24;101061.17;;;3.29;68.97
76868;BME280;66168;45.478;11.060;2023-12-07T07:05:51;101066.35;;;3.31;68.87
76868;BME280;66168;45.478;11.060;2023-12-07T07:08:18;101066.56;;;3.34;68.72
76868;BME280;66168;45.478;11.060;2023-12-07T07:10:46;101068.44;;;3.39;68.61
76868;BME280;66168;45.478;11.060;2023-12-07T07:13:16;101072.52;;;3.43;68.50
76868;BME280;66168;45.478;11.060;2023-12-07T07:15:44;101072.15;;;3.50;68.35
76868;BME280;66168;45.478;11.060;2023-12-07T07:18:11;101071.94;;;3.55;68.49
76868;BME280;66168;45.478;11.060;2023-12-07T07:20:39;101074.98;;;3.58;68.42
76868;BME280;66168;45.478;11.060;2023-12-07T07:23:06;101080.66;;;3.64;67.94
76868;BME280;66168;45.478;11.060;2023-12-07T07:25:35;101082.90;;;3.69;67.88
76868;BME280;66168;45.478;11.060;2023-12-07T07:28:02;101087.72;;;3.72;67.99
76868;BME280;66168;45.478;11.060;2023-12-07T07:30:30;101084.20;;;3.77;67.69
76868;BME280;66168;45.478;11.060;2023-12-07T07:32:57;101085.45;;;3.83;67.67
76868;BME280;66168;45.478;11.060;2023-12-07T07:35:24;101087.27;;;3.89;67.43
76868;BME280;66168;45.478;11.060;2023-12-07T07:37:51;101090.55;;;3.94;67.23
76868;BME280;66168;45.478;11.060;2023-12-07T07:40:18;101090.23;;;3.98;67.13
76868;BME280;66168;45.478;11.060;2023-12-07T07:42:45;101093.29;;;4.06;67.40
76868;BME280;66168;45.478;11.060;2023-12-07T07:45:12;101099.26;;;4.14;67.34
76868;BME280;66168;45.478;11.060;2023-12-07T07:47:38;101100.08;;;4.21;66.96
76868;BME280;66168;45.478;11.060;2023-12-07T07:50:06;101105.15;;;4.28;66.89
76868;BME280;66168;45.478;11.060;2023-12-07T07:52:33;101111.71;;;4.34;67.28
76868;BME280;66168;45.478;11.060;2023-12-07T07:55:03;101111.86;;;4.36;67.94
76868;BME280;66168;45.478;11.060;2023-12-07T07:57:30;101110.80;;;4.39;68.34
76868;BME280;66168;45.478;11.060;2023-12-07T07:59:58;101113.40;;;4.41;68.57
76868;BME280;66168;45.478;11.060;2023-12-07T08:02:25;101110.48;;;4.44;68.72
76868;BME280;66168;45.478;11.060;2023-12-07T08:04:51;101115.73;;;4.49;68.83
76868;BME280;66168;45.478;11.060;2023-12-07T08:07:18;101112.77;;;4.53;69.42
76868;BME280;66168;45.478;11.060;2023-12-07T08:09:45;101113.34;;;4.59;70.02
76868;BME280;66168;45.478;11.060;2023-12-07T08:12:12;101112.45;;;4.67;70.38
76868;BME280;66168;45.478;11.060;2023-12-07T08:14:39;101117.64;;;4.74;70.36
76868;BME280;66168;45.478;11.060;2023-12-07T08:17:07;101121.45;;;4.82;70.15
76868;BME280;66168;45.478;11.060;2023-12-07T08:19:34;101121.16;;;4.89;69.72
76868;BME280;66168;45.478;11.060;2023-12-07T08:22:01;101127.14;;;4.97;69.51
76868;BME280;66168;45.478;11.060;2023-12-07T08:24:28;101129.38;;;5.06;69.28
76868;BME280;66168;45.478;11.060;2023-12-07T08:26:55;101132.83;;;5.17;68.95
76868;BME280;66168;45.478;11.060;2023-12-07T08:29:22;101137.93;;;5.25;68.44
76868;BME280;66168;45.478;11.060;2023-12-07T08:31:49;101142.03;;;5.28;68.16
76868;BME280;66168;45.478;11.060;2023-12-07T08:34:16;101141.54;;;5.37;68.22
76868;BME280;66168;45.478;11.060;2023-12-07T08:36:45;101137.46;;;5.45;67.56
76868;BME280;66168;45.478;11.060;2023-12-07T08:39:12;101139.88;;;5.56;67.74
76868;BME280;66168;45.478;11.060;2023-12-07T08:41:39;101141.36;;;5.69;67.91
76868;BME280;66168;45.478;11.060;2023-12-07T08:44:06;101143.10;;;5.86;67.62
76868;BME280;66168;45.478;11.060;2023-12-07T08:46:33;101144.18;;;6.02;67.22
76868;BME280;66168;45.478;11.060;2023-12-07T08:49:00;101150.08;;;6.12;67.89
76868;BME280;66168;45.478;11.060;2023-12-07T08:51:28;101150.11;;;6.24;68.43
76868;BME280;66168;45.478;11.060;2023-12-07T08:53:56;101155.73;;;6.38;68.51
76868;BME280;66168;45.478;11.060;2023-12-07T08:56:23;101154.00;;;6.57;68.31
76868;BME280;66168;45.478;11.060;2023-12-07T08:58:50;101155.92;;;6.76;67.59
76868;BME280;66168;45.478;11.060;2023-12-07T09:01:18;101150.98;;;6.96;66.85
76868;BME280;66168;45.478;11.060;2023-12-07T09:03:57;101153.33;;;7.22;66.70
76868;BME280;66168;45.478;11.060;2023-12-07T09:06:24;101156.48;;;7.45;65.85
76868;BME280;66168;45.478;11.060;2023-12-07T09:08:52;101157.60;;;7.53;65.03
76868;BME280;66168;45.478;11.060;2023-12-07T09:11:19;101161.73;;;7.62;65.95
76868;BME280;66168;45.478;11.060;2023-12-07T09:13:46;101163.42;;;7.74;65.27
76868;BME280;66168;45.478;11.060;2023-12-07T09:16:13;101171.39;;;7.84;65.68
76868;BME280;66168;45.478;11.060;2023-12-07T09:18:42;101174.02;;;8.10;64.70
76868;BME280;66168;45.478;11.060;2023-12-07T09:21:10;101172.24;;;8.29;64.32
76868;BME280;66168;45.478;11.060;2023-12-07T09:23:37;101172.34;;;8.53;63.04
76868;BME280;66168;45.478;11.060;2023-12-07T09:26:04;101172.39;;;8.74;62.63
76868;BME280;66168;45.478;11.060;2023-12-07T09:28:32;101169.64;;;8.84;61.44
76868;BME280;66168;45.478;11.060;2023-12-07T09:31:02;101167.10;;;9.02;60.83
76868;BME280;66168;45.478;11.060;2023-12-07T09:33:29;101168.39;;;9.19;59.57
76868;BME280;66168;45.478;11.060;2023-12-07T09:35:56;101175.39;;;9.22;59.52
76868;BME280;66168;45.478;11.060;2023-12-07T09:38:23;101174.29;;;9.12;59.54
76868;BME280;66168;45.478;11.060;2023-12-07T09:40:53;101177.90;;;9.00;59.51
76868;BME280;66168;45.478;11.060;2023-12-07T09:43:21;101181.17;;;8.85;59.88
76868;BME280;66168;45.478;11.060;2023-12-07T09:45:48;101179.73;;;8.75;60.74
76868;BME280;66168;45.478;11.060;2023-12-07T09:48:18;101183.59;;;8.72;61.36
76868;BME280;66168;45.478;11.060;2023-12-07T09:50:46;101181.79;;;8.67;61.18
76868;BME280;66168;45.478;11.060;2023-12-07T09:53:13;101184.48;;;8.66;61.35
76868;BME280;66168;45.478;11.060;2023-12-07T09:55:40;101175.59;;;8.74;61.43
76868;BME280;66168;45.478;11.060;2023-12-07T09:58:07;101173.61;;;8.88;61.22
76868;BME280;66168;45.478;11.060;2023-12-07T10:00:36;101169.65;;;9.12;60.93
76868;BME280;66168;45.478;11.060;2023-12-07T10:03:06;101170.59;;;9.34;59.70
76868;BME280;66168;45.478;11.060;2023-12-07T10:06:12;101170.68;;;9.43;58.79
76868;BME280;66168;45.478;11.060;2023-12-07T10:08:39;101165.37;;;9.62;59.54
76868;BME280;66168;45.478;11.060;2023-12-07T10:11:07;101166.73;;;9.73;58.68
76868;BME280;66168;45.478;11.060;2023-12-07T10:13:36;101161.61;;;9.68;58.80
76868;BME280;66168;45.478;11.060;2023-12-07T10:16:06;101164.77;;;9.54;59.56
76868;BME280;66168;45.478;11.060;2023-12-07T10:18:33;101165.20;;;9.42;59.55
76868;BME280;66168;45.478;11.060;2023-12-07T10:21:00;101161.48;;;9.36;59.93
76868;BME280;66168;45.478;11.060;2023-12-07T10:23:27;101160.42;;;9.45;59.85
76868;BME280;66168;45.478;11.060;2023-12-07T10:25:54;101160.08;;;9.45;59.90
76868;BME280;66168;45.478;11.060;2023-12-07T10:28:21;101159.90;;;9.38;60.66
76868;BME280;66168;45.478;11.060;2023-12-07T10:30:50;101156.15;;;9.50;61.02
76868;BME280;66168;45.478;11.060;2023-12-07T10:33:19;101158.69;;;9.52;60.37
76868;BME280;66168;45.478;11.060;2023-12-07T10:35:46;101159.67;;;9.35;60.68
76868;BME280;66168;45.478;11.060;2023-12-07T10:38:16;101156.05;;;9.31;61.07
76868;BME280;66168;45.478;11.060;2023-12-07T10:40:43;101154.72;;;9.28;61.06
76868;BME280;66168;45.478;11.060;2023-12-07T10:43:11;101152.70;;;9.32;60.42
76868;BME280;66168;45.478;11.060;2023-12-07T10:45:40;101157.23;;;9.36;60.39
76868;BME280;66168;45.478;11.060;2023-12-07T10:48:09;101154.55;;;9.49;60.63
76868;BME280;66168;45.478;11.060;2023-12-07T10:50:41;101152.61;;;9.63;60.37
76868;BME280;66168;45.478;11.060;2023-12-07T10:53:32;101146.75;;;9.65;59.88
76868;BME280;66168;45.478;11.060;2023-12-07T10:56:04;101138.05;;;9.65;59.91
76868;BME280;66168;45.478;11.060;2023-12-07T10:58:33;101138.70;;;9.72;60.52
76868;BME280;66168;45.478;11.060;2023-12-07T11:01:02;101142.50;;;9.76;59.83
76868;BME280;66168;45.478;11.060;2023-12-07T11:03:30;101142.10;;;9.77;60.22
76868;BME280;66168;45.478;11.060;2023-12-07T11:05:58;101142.46;;;9.77;59.62
76868;BME280;66168;45.478;11.060;2023-12-07T11:08:31;101142.79;;;9.68;59.59
76868;BME280;66168;45.478;11.060;2023-12-07T11:13:32;101145.71;;;9.52;59.58
76868;BME280;66168;45.478;11.060;2023-12-07T11:16:01;101141.20;;;9.42;59.69
76868;BME280;66168;45.478;11.060;2023-12-07T11:18:29;101140.99;;;9.46;60.49
76868;BME280;66168;45.478;11.060;2023-12-07T11:20:58;101136.21;;;9.60;60.62
76868;BME280;66168;45.478;11.060;2023-12-07T11:23:27;101133.43;;;9.75;60.27
76868;BME280;66168;45.478;11.060;2023-12-07T11:25:55;101132.00;;;9.82;59.75
76868;BME280;66168;45.478;11.060;2023-12-07T11:28:36;101130.88;;;9.84;59.10
76868;BME280;66168;45.478;11.060;2023-12-07T11:31:04;101124.79;;;9.80;59.25
76868;BME280;66168;45.478;11.060;2023-12-07T11:33:33;101114.61;;;9.77;59.30
76868;BME280;66168;45.478;11.060;2023-12-07T11:38:26;101109.31;;;9.87;58.84
76868;BME280;66168;45.478;11.060;2023-12-07T11:40:55;101104.84;;;9.91;59.04
76868;BME280;66168;45.478;11.060;2023-12-07T11:46:07;101105.62;;;9.92;59.18
76868;BME280;66168;45.478;11.060;2023-12-07T11:48:36;101105.58;;;9.99;60.01
76868;BME280;66168;45.478;11.060;2023-12-07T11:51:07;101102.44;;;10.10;59.12
76868;BME280;66168;45.478;11.060;2023-12-07T11:53:35;101095.05;;;10.20;58.91
76868;BME280;66168;45.478;11.060;2023-12-07T11:56:06;101093.39;;;10.24;58.71
76868;BME280;66168;45.478;11.060;2023-12-07T11:58:35;101086.49;;;10.29;57.64
76868;BME280;66168;45.478;11.060;2023-12-07T12:01:06;101084.73;;;10.30;56.64
76868;BME280;66168;45.478;11.060;2023-12-07T12:03:35;101083.59;;;10.34;56.14
76868;BME280;66168;45.478;11.060;2023-12-07T12:06:05;101083.76;;;10.37;56.79
76868;BME280;66168;45.478;11.060;2023-12-07T12:08:33;101082.27;;;10.42;55.46
76868;BME280;66168;45.478;11.060;2023-12-07T12:11:00;101081.60;;;10.41;55.61
76868;BME280;66168;45.478;11.060;2023-12-07T12:13:34;101083.10;;;10.37;56.02
76868;BME280;66168;45.478;11.060;2023-12-07T12:16:02;101086.60;;;10.42;55.74
76868;BME280;66168;45.478;11.060;2023-12-07T12:18:33;101084.86;;;10.42;54.76
76868;BME280;66168;45.478;11.060;2023-12-07T12:21:00;101087.62;;;10.43;55.20
76868;BME280;66168;45.478;11.060;2023-12-07T12:23:28;101085.30;;;10.43;54.66
76868;BME280;66168;45.478;11.060;2023-12-07T12:25:56;101086.50;;;10.48;54.91
76868;BME280;66168;45.478;11.060;2023-12-07T12:28:25;101086.50;;;10.48;53.65
76868;BME280;66168;45.478;11.060;2023-12-07T12:30:55;101083.64;;;10.51;54.62
76868;BME280;66168;45.478;11.060;2023-12-07T12:33:22;101081.88;;;10.56;55.01
76868;BME280;66168;45.478;11.060;2023-12-07T12:36:06;101080.64;;;10.50;55.16
76868;BME280;66168;45.478;11.060;2023-12-07T12:38:34;101082.24;;;10.35;54.16
76868;BME280;66168;45.478;11.060;2023-12-07T12:41:09;101071.34;;;10.23;54.33
76868;BME280;66168;45.478;11.060;2023-12-07T12:43:37;101069.23;;;10.09;55.17
76868;BME280;66168;45.478;11.060;2023-12-07T12:46:04;101063.04;;;9.97;55.71
76868;BME280;66168;45.478;11.060;2023-12-07T12:48:32;101059.42;;;9.91;55.72
76868;BME280;66168;45.478;11.060;2023-12-07T12:51:16;101055.98;;;9.86;56.29
76868;BME280;66168;45.478;11.060;2023-12-07T12:53:45;101046.58;;;9.82;56.12
76868;BME280;66168;45.478;11.060;2023-12-07T12:56:18;101040.77;;;9.75;56.42
76868;BME280;66168;45.478;11.060;2023-12-07T12:58:46;101039.01;;;9.72;56.01
76868;BME280;66168;45.478;11.060;2023-12-07T13:01:15;101044.05;;;9.71;56.92
76868;BME280;66168;45.478;11.060;2023-12-07T13:03:44;101048.02;;;9.64;56.53